Time;durP1;ratioP1;P1;durP2;ratioP2;P2;SDS_P1;SDS_P2;PMS_P1;PMS_P2;Temp;Humidity;BMP_temperature;BMP_pressure;BME280_temperature;BME280_humidity;BME280_pressure;Samples;Min_cycle;Max_cycle;Signal;HPM_P1;HPM_P2
2023/01/28 00:02:21;;;;;;;5.93;3.03;;;5.10;89.50;;;;;;5047099;28;20822;-63
2023/01/28 00:04:58;;;;;;;7.33;3.53;;;5.10;89.40;;;;;;5048853;28;20213;-63
2023/01/28 00:07:50;;;;;;;8.73;3.63;;;5.10;89.70;;;;;;5046689;28;20210;-63
2023/01/28 00:10:27;;;;;;;8.33;4.17;;;5.10;89.70;;;;;;5078393;28;20672;-61
2023/01/28 00:12:57;;;;;;;11.03;4.20;;;5.00;89.20;;;;;;5049132;28;20241;-63
2023/01/28 00:15:32;;;;;;;9.33;4.20;;;5.00;89.30;;;;;;5049727;28;20202;-63
2023/01/28 00:18:22;;;;;;;12.97;4.33;;;5.00;88.60;;;;;;5046576;28;20247;-62
2023/01/28 00:21:01;;;;;;;6.83;3.53;;;5.00;88.40;;;;;;5047767;28;20208;-63
2023/01/28 00:23:43;;;;;;;5.37;3.23;;;4.90;88.40;;;;;;5048468;28;20252;-62
2023/01/28 00:26:27;;;;;;;;;;;;;;;;;;;;;
2023/01/28 00:29:47;;;;;;;3.23;2.30;;;4.90;88.30;;;;;;5048412;28;20253;-63
2023/01/28 00:32:31;;;;;;;2.70;2.40;;;4.90;88.50;;;;;;5046985;28;20213;-62
2023/01/28 00:35:07;;;;;;;3.23;2.10;;;4.90;87.80;;;;;;5076473;28;20593;-62
2023/01/28 00:37:37;;;;;;;3.90;2.00;;;4.80;87.70;;;;;;5046695;28;20201;-62
2023/01/28 00:40:11;;;;;;;2.50;2.10;;;4.80;88.20;;;;;;5049571;28;20396;-62
2023/01/28 00:42:53;;;;;;;2.10;1.80;;;4.80;87.50;;;;;;5048050;28;20308;-63
2023/01/28 00:45:39;;;;;;;2.60;2.13;;;4.80;88.00;;;;;;5047786;28;20194;-64
2023/01/28 00:48:41;;;;;;;2.17;1.80;;;4.80;87.80;;;;;;5049671;28;20198;-63
2023/01/28 00:51:17;;;;;;;5.80;2.03;;;4.80;88.10;;;;;;5047194;28;20194;-62
2023/01/28 00:54:02;;;;;;;5.57;2.53;;;4.80;88.00;;;;;;5046446;28;20209;-62
2023/01/28 00:56:52;;;;;;;7.13;2.93;;;4.80;88.10;;;;;;5080009;28;20197;-62
2023/01/28 01:00:01;;;;;;;4.97;2.73;;;4.90;87.90;;;;;;5051093;28;20195;-62
2023/01/28 01:02:35;;;;;;;6.17;2.60;;;5.70;89.10;;;;;;5047027;28;20192;-62
2023/01/28 01:05:33;;;;;;;5.67;2.70;;;4.90;87.70;;;;;;5048388;28;20227;-62
2023/01/28 01:08:10;;;;;;;6.07;2.60;;;4.90;87.70;;;;;;5047657;28;20696;-62
2023/01/28 01:10:45;;;;;;;4.93;2.87;;;4.90;87.40;;;;;;5048896;28;20288;-64
2023/01/28 01:13:28;;;;;;;4.30;2.70;;;4.90;87.80;;;;;;5048100;28;20199;-62
2023/01/28 01:16:15;;;;;;;4.03;2.20;;;4.90;88.00;;;;;;5050644;28;20197;-62
2023/01/28 01:18:48;;;;;;;9.30;3.43;;;5.20;87.60;;;;;;5076504;28;20205;-63
2023/01/28 01:21:25;;;;;;;14.10;4.33;;;4.80;87.40;;;;;;5050722;28;20282;-63
2023/01/28 01:24:00;;;;;;;7.53;3.70;;;4.90;86.90;;;;;;5047421;28;20309;-63
2023/01/28 01:26:28;;;;;;;6.70;3.10;;;4.80;87.20;;;;;;5046381;28;22153;-63
2023/01/28 01:29:29;;;;;;;6.30;3.30;;;4.80;86.70;;;;;;5044059;28;20198;-62
2023/01/28 01:32:19;;;;;;;5.70;3.00;;;4.80;86.60;;;;;;5044810;28;20251;-63
2023/01/28 01:34:54;;;;;;;4.13;2.40;;;4.80;86.10;;;;;;5047768;28;20209;-63
2023/01/28 01:37:35;;;;;;;2.60;1.90;;;4.80;86.60;;;;;;5046199;28;20205;-63
2023/01/28 01:40:13;;;;;;;4.13;2.13;;;4.80;87.00;;;;;;5046635;28;20214;-63
2023/01/28 01:42:55;;;;;;;8.03;2.93;;;4.70;86.60;;;;;;5044821;28;20223;-62
2023/01/28 01:45:44;;;;;;;9.77;3.33;;;4.70;86.60;;;;;;5048062;28;20285;-63
2023/01/28 01:48:37;;;;;;;2.77;2.10;;;4.80;86.60;;;;;;5044129;28;20213;-63
2023/01/28 01:51:21;;;;;;;3.97;2.63;;;4.80;86.70;;;;;;5047195;28;20209;-61
2023/01/28 01:54:00;;;;;;;2.73;2.00;;;4.80;86.10;;;;;;5046677;28;20248;-63
2023/01/28 01:56:49;;;;;;;2.80;2.20;;;4.80;86.20;;;;;;5044569;28;20203;-63
2023/01/28 02:00:03;;;;;;;3.47;1.80;;;4.80;86.50;;;;;;5047704;28;20216;-62
2023/01/28 02:06:05;;;;;;;2.27;1.80;;;4.80;85.80;;;;;;5036939;28;20213;-62
2023/01/28 02:08:32;;;;;;;2.17;1.83;;;4.80;85.90;;;;;;5048238;28;20209;-62
2023/01/28 02:11:03;;;;;;;3.87;2.50;;;4.80;86.00;;;;;;5045240;28;20201;-62
2023/01/28 02:13:34;;;;;;;4.77;2.40;;;4.80;85.70;;;;;;5048426;28;20185;-62
2023/01/28 02:16:03;;;;;;;3.03;2.07;;;4.70;85.70;;;;;;5045916;28;20277;-61
2023/01/28 02:18:32;;;;;;;2.67;1.87;;;4.80;85.90;;;;;;5049365;28;20194;-61
2023/01/28 02:21:21;;;;;;;4.27;1.87;;;4.80;85.80;;;;;;5048191;28;20372;-60
2023/01/28 02:24:10;;;;;;;2.00;1.80;;;4.80;85.90;;;;;;5046524;28;20248;-62
2023/01/28 02:26:56;;;;;;;2.70;1.97;;;4.80;85.90;;;;;;5043675;28;20195;-61
2023/01/28 02:29:32;;;;;;;1.63;1.53;;;4.90;85.90;;;;;;5045952;28;20221;-61
2023/01/28 02:32:05;;;;;;;3.57;1.60;;;4.90;85.80;;;;;;5044330;28;20534;-61
2023/01/28 02:34:40;;;;;;;1.87;1.73;;;4.80;85.90;;;;;;5061549;28;20207;-62
2023/01/28 02:37:14;;;;;;;3.60;1.77;;;4.80;85.90;;;;;;5044219;28;20212;-62
2023/01/28 02:39:47;;;;;;;2.53;1.53;;;4.80;85.90;;;;;;5046779;28;20209;-62
2023/01/28 02:42:17;;;;;;;1.80;1.50;;;4.90;85.90;;;;;;5046722;28;20444;-62
2023/01/28 02:44:46;;;;;;;3.60;1.60;;;4.90;85.80;;;;;;5045617;28;20582;-62
2023/01/28 02:50:03;;;;;;;1.27;1.17;;;4.90;85.60;;;;;;5045409;28;20277;-62
2023/01/28 02:55:32;;;;;;;2.27;1.40;;;4.90;85.50;;;;;;5045727;28;20187;-62
2023/01/28 02:58:06;;;;;;;1.60;1.50;;;4.90;85.50;;;;;;5045072;28;20194;-60
2023/01/28 03:00:46;;;;;;;1.60;1.47;;;4.90;85.60;;;;;;5059969;28;20202;-62
2023/01/28 03:03:20;;;;;;;1.20;1.10;;;4.90;85.70;;;;;;5047814;28;20229;-62
2023/01/28 03:06:05;;;;;;;2.40;1.40;;;4.90;85.60;;;;;;5045679;28;20205;-61
2023/01/28 03:36:48;;;;;;;4.93;1.53;;;4.90;85.40;;;;;;5079650;28;20705;-62
2023/01/28 03:39:37;;;;;;;2.27;1.77;;;4.90;85.50;;;;;;5048908;28;20221;-62
2023/01/28 03:42:07;;;;;;;2.77;1.67;;;4.90;85.70;;;;;;5047471;28;20320;-62
2023/01/28 03:44:53;;;;;;;1.87;1.60;;;4.90;85.60;;;;;;5048848;28;20203;-61
2023/01/28 03:47:23;;;;;;;1.80;1.70;;;4.90;85.80;;;;;;5046816;28;20735;-61
2023/01/28 03:49:53;;;;;;;2.20;1.60;;;4.90;85.80;;;;;;5050670;28;20193;-62
2023/01/28 03:52:24;;;;;;;1.77;1.67;;;4.90;85.80;;;;;;5048790;28;20195;-61
2023/01/28 03:54:53;;;;;;;3.23;1.97;;;4.90;85.70;;;;;;5049298;28;20289;-62
2023/01/28 03:57:22;;;;;;;3.77;1.87;;;4.90;85.50;;;;;;5050624;28;20256;-60
2023/01/28 03:59:51;;;;;;;3.07;1.60;;;4.90;85.50;;;;;;5051872;28;20281;-61
2023/01/28 04:02:20;;;;;;;1.70;1.60;;;4.90;85.70;;;;;;5049739;28;20205;-61
2023/01/28 04:04:50;;;;;;;2.73;2.17;;;4.90;85.70;;;;;;5049735;28;20209;-61
2023/01/28 04:07:18;;;;;;;2.23;1.97;;;4.90;85.40;;;;;;5077082;28;20247;-61
2023/01/28 04:10:06;;;;;;;2.10;1.90;;;4.90;85.50;;;;;;5048212;28;20202;-62
2023/01/28 04:13:11;;;;;;;1.60;1.50;;;4.90;85.20;;;;;;5048347;28;20221;-62
2023/01/28 04:15:38;;;;;;;2.43;2.00;;;4.90;85.10;;;;;;5048817;28;20362;-62
2023/01/28 04:18:05;;;;;;;1.73;1.50;;;4.90;84.70;;;;;;5049647;28;20278;-62
2023/01/28 04:20:36;;;;;;;2.23;1.57;;;4.90;84.80;;;;;;5049176;28;20198;-62
2023/01/28 04:23:03;;;;;;;3.80;2.23;;;4.90;84.80;;;;;;5047548;28;20301;-62
2023/01/28 04:25:31;;;;;;;3.93;2.60;;;4.90;84.70;;;;;;5048699;28;20289;-63
2023/01/28 04:27:58;;;;;;;3.33;2.23;;;4.90;84.30;;;;;;5047074;28;20214;-62
2023/01/28 04:30:29;;;;;;;2.77;2.30;;;4.90;84.60;;;;;;5049173;28;20207;-62
2023/01/28 04:33:05;;;;;;;2.60;1.93;;;4.90;84.80;;;;;;5047099;28;20216;-62
2023/01/28 04:35:43;;;;;;;2.97;2.20;;;4.90;84.90;;;;;;5049943;28;20266;-62
2023/01/28 04:38:45;;;;;;;3.40;1.87;;;4.90;85.00;;;;;;5027755;28;20227;-62
2023/01/28 04:41:23;;;;;;;3.40;2.00;;;4.90;85.10;;;;;;5047271;28;20226;-61
2023/01/28 04:43:50;;;;;;;3.87;2.03;;;4.90;85.30;;;;;;5050217;28;20197;-62
2023/01/28 04:46:20;;;;;;;1.77;1.57;;;4.90;85.40;;;;;;5047219;28;20209;-61
2023/01/28 04:49:06;;;;;;;2.20;1.73;;;4.90;85.50;;;;;;5049553;28;20311;-62
2023/01/28 04:51:42;;;;;;;2.03;1.63;;;4.90;85.60;;;;;;5047944;28;20217;-62
2023/01/28 04:54:18;;;;;;;2.03;1.80;;;4.90;85.60;;;;;;5049724;28;20217;-61
2023/01/28 04:56:45;;;;;;;2.23;1.80;;;4.90;85.70;;;;;;5048585;28;20209;-62
2023/01/28 04:59:12;;;;;;;2.67;1.90;;;4.90;85.80;;;;;;5047542;28;20693;-62
2023/01/28 05:01:39;;;;;;;1.73;1.63;;;4.90;85.90;;;;;;5049250;28;20284;-62
2023/01/28 05:04:08;;;;;;;2.13;1.63;;;4.90;86.00;;;;;;5048175;28;20199;-62
2023/01/28 05:06:41;;;;;;;2.50;2.20;;;4.90;86.20;;;;;;5048542;28;20286;-61
2023/01/28 05:09:17;;;;;;;2.03;1.83;;;4.90;86.20;;;;;;5044868;28;22064;-62
2023/01/28 05:11:44;;;;;;;2.23;1.70;;;4.90;86.20;;;;;;5048251;28;20194;-62
2023/01/28 05:14:12;;;;;;;1.80;1.70;;;4.90;86.30;;;;;;5046898;28;20203;-62
2023/01/28 05:16:46;;;;;;;1.50;1.40;;;5.00;86.40;;;;;;5046816;28;20241;-62
2023/01/28 05:19:13;;;;;;;1.50;1.30;;;5.00;87.10;;;;;;5047735;28;20218;-62
2023/01/28 05:21:43;;;;;;;1.53;1.43;;;5.00;86.30;;;;;;5047308;28;20207;-62
2023/01/28 05:24:32;;;;;;;2.13;1.93;;;4.90;86.40;;;;;;5046649;28;20199;-62
2023/01/28 05:26:59;;;;;;;1.60;1.50;;;4.90;86.40;;;;;;5047190;28;20210;-62
2023/01/28 05:29:27;;;;;;;1.50;1.40;;;4.90;86.50;;;;;;5046512;28;20304;-63
2023/01/28 05:31:54;;;;;;;3.37;1.83;;;4.90;86.50;;;;;;5047891;28;20234;-62
2023/01/28 05:34:21;;;;;;;1.83;1.50;;;4.90;86.50;;;;;;5048269;28;20205;-62
2023/01/28 05:36:50;;;;;;;2.57;2.00;;;4.90;86.60;;;;;;5048351;28;20280;-62
2023/01/28 05:39:36;;;;;;;3.27;2.20;;;4.90;86.60;;;;;;5048491;28;20575;-62
2023/01/28 05:42:04;;;;;;;3.77;2.30;;;4.90;86.70;;;;;;5047460;28;20761;-63
2023/01/28 05:44:33;;;;;;;2.43;2.00;;;4.90;86.80;;;;;;5047476;28;20199;-62
2023/01/28 05:47:15;;;;;;;2.23;1.97;;;4.90;86.80;;;;;;5045180;28;20205;-62
2023/01/28 05:50:03;;;;;;;2.43;2.10;;;4.90;86.80;;;;;;5046588;28;20587;-62
2023/01/28 05:53:00;;;;;;;2.80;1.93;;;4.90;86.80;;;;;;5027693;28;20277;-62
2023/01/28 05:55:33;;;;;;;6.40;2.80;;;4.90;86.70;;;;;;5047396;28;20247;-61
2023/01/28 05:58:00;;;;;;;3.10;2.40;;;4.90;86.70;;;;;;5047537;28;20221;-61
2023/01/28 06:00:27;;;;;;;2.63;2.17;;;4.80;86.60;;;;;;5048520;28;20753;-61
2023/01/28 06:02:55;;;;;;;5.20;2.20;;;4.80;86.80;;;;;;5046089;28;20631;-61
2023/01/28 06:05:24;;;;;;;2.30;2.00;;;4.80;86.90;;;;;;5046488;28;20207;-62
2023/01/28 06:07:51;;;;;;;6.40;3.03;;;4.90;87.70;;;;;;5046609;28;20333;-61
2023/01/28 06:10:19;;;;;;;5.93;3.20;;;4.90;86.90;;;;;;5046476;28;20190;-62
2023/01/28 06:12:47;;;;;;;3.97;2.60;;;4.80;86.90;;;;;;5060659;28;20240;-61
2023/01/28 06:15:33;;;;;;;4.53;2.50;;;4.80;87.00;;;;;;5046057;28;20203;-62
2023/01/28 06:18:03;;;;;;;3.43;2.40;;;4.90;87.10;;;;;;5046106;28;20196;-62
2023/01/28 06:20:33;;;;;;;3.90;2.77;;;4.80;87.00;;;;;;5077072;28;20204;-61
2023/01/28 06:23:01;;;;;;;5.60;2.80;;;4.80;87.10;;;;;;5045818;28;20608;-61
2023/01/28 06:25:30;;;;;;;4.63;2.70;;;4.80;87.50;;;;;;5048625;28;20290;-61
2023/01/28 06:28:03;;;;;;;4.07;2.70;;;4.90;87.40;;;;;;5044603;28;20245;-61
2023/01/28 06:30:30;;;;;;;4.80;2.70;;;4.80;87.30;;;;;;5048709;28;20194;-61
2023/01/28 06:32:57;;;;;;;4.03;2.63;;;4.80;87.70;;;;;;5047583;28;20203;-61
2023/01/28 06:35:25;;;;;;;5.17;3.00;;;4.80;87.80;;;;;;5046716;28;20616;-61
2023/01/28 06:37:53;;;;;;;4.50;2.80;;;4.80;87.80;;;;;;5045913;28;20574;-62
2023/01/28 06:40:21;;;;;;;5.73;3.13;;;4.80;87.80;;;;;;5045692;28;21708;-62
2023/01/28 06:42:50;;;;;;;4.87;2.90;;;4.80;87.80;;;;;;5046172;28;20308;-62
2023/01/28 06:45:17;;;;;;;5.37;2.60;;;4.70;87.80;;;;;;5046911;28;20187;-62
2023/01/28 06:47:44;;;;;;;3.30;2.30;;;4.70;87.90;;;;;;5044748;28;20279;-61
2023/01/28 06:50:12;;;;;;;2.53;2.30;;;4.80;88.00;;;;;;5046821;28;20209;-61
2023/01/28 06:52:40;;;;;;;2.57;1.83;;;4.80;87.90;;;;;;5045043;28;20279;-61
2023/01/28 06:55:08;;;;;;;2.47;2.20;;;4.80;87.90;;;;;;5041914;28;20195;-61
2023/01/28 06:57:38;;;;;;;2.83;2.27;;;4.80;87.80;;;;;;5046191;28;20198;-62
2023/01/28 07:00:09;;;;;;;3.20;2.13;;;4.90;87.70;;;;;;5047181;28;20197;-61
2023/01/28 07:02:36;;;;;;;3.43;2.10;;;4.90;87.70;;;;;;5048051;28;20202;-62
2023/01/28 07:05:04;;;;;;;3.23;2.03;;;4.90;87.60;;;;;;5047166;28;20210;-62
2023/01/28 07:07:31;;;;;;;1.80;1.70;;;4.90;87.50;;;;;;5044388;28;20273;-62
2023/01/28 07:09:59;;;;;;;2.03;1.80;;;4.90;87.40;;;;;;5046292;28;20206;-60
2023/01/28 07:12:26;;;;;;;2.17;1.50;;;5.00;87.50;;;;;;5044042;28;20254;-61
2023/01/28 07:14:53;;;;;;;2.80;1.90;;;4.90;87.30;;;;;;5048009;28;20191;-61
2023/01/28 07:17:21;;;;;;;1.93;1.70;;;4.90;87.40;;;;;;5044029;28;20289;-63
2023/01/28 07:19:49;;;;;;;2.03;1.87;;;4.90;87.50;;;;;;5048360;28;20187;-61
2023/01/28 07:22:16;;;;;;;2.00;1.80;;;4.90;87.60;;;;;;5044687;28;20200;-61
2023/01/28 07:24:43;;;;;;;2.57;2.13;;;4.90;87.70;;;;;;5046737;28;20230;-62
2023/01/28 07:27:10;;;;;;;2.10;1.87;;;4.90;87.70;;;;;;5043675;28;20198;-61
2023/01/28 07:29:37;;;;;;;3.03;2.10;;;4.90;87.70;;;;;;5046649;28;20218;-62
2023/01/28 07:32:06;;;;;;;2.20;1.97;;;4.90;87.80;;;;;;5045082;28;20209;-60
2023/01/28 07:34:38;;;;;;;2.53;1.90;;;4.90;87.80;;;;;;5046207;28;20219;-62
2023/01/28 07:37:06;;;;;;;3.83;2.33;;;4.90;87.90;;;;;;5045981;28;20187;-63
2023/01/28 07:39:33;;;;;;;2.70;1.90;;;4.90;87.90;;;;;;5046882;28;20217;-61
2023/01/28 07:42:00;;;;;;;3.03;2.30;;;5.00;87.80;;;;;;5045264;28;20229;-62
2023/01/28 07:44:38;;;;;;;2.90;2.63;;;5.00;87.80;;;;;;5045075;28;20210;-62
2023/01/28 07:47:06;;;;;;;3.20;2.43;;;5.00;87.60;;;;;;5044213;28;20194;-62
2023/01/28 07:49:35;;;;;;;2.60;2.10;;;4.90;87.60;;;;;;5042604;28;20207;-61
2023/01/28 07:52:02;;;;;;;3.20;2.20;;;5.00;87.80;;;;;;5043994;28;20193;-62
2023/01/28 07:54:32;;;;;;;2.37;2.10;;;4.90;87.70;;;;;;5047733;28;20199;-61
2023/01/28 07:56:59;;;;;;;2.67;2.27;;;4.90;87.60;;;;;;5046584;28;20574;-62
2023/01/28 07:59:27;;;;;;;6.47;2.57;;;4.90;87.40;;;;;;5049731;28;20195;-61
2023/01/28 08:01:54;;;;;;;5.37;2.73;;;4.90;87.40;;;;;;5049266;28;20659;-61
2023/01/28 08:04:21;;;;;;;6.53;3.53;;;4.90;87.50;;;;;;5048606;28;20199;-62
2023/01/28 08:06:51;;;;;;;5.33;3.10;;;4.90;87.40;;;;;;5047660;28;20195;-61
2023/01/28 08:09:18;;;;;;;4.53;2.73;;;4.90;87.40;;;;;;5047463;28;20211;-61
2023/01/28 08:11:45;;;;;;;5.10;2.90;;;5.00;87.50;;;;;;5050776;28;20209;-61
2023/01/28 08:14:12;;;;;;;8.37;3.17;;;5.00;87.40;;;;;;5051253;28;20190;-62
2023/01/28 08:16:39;;;;;;;6.70;3.43;;;5.00;87.70;;;;;;5051034;28;20194;-62
2023/01/28 08:19:06;;;;;;;5.37;3.33;;;5.10;87.40;;;;;;5050975;28;20729;-61
2023/01/28 08:21:34;;;;;;;8.70;4.13;;;5.10;87.50;;;;;;5051014;28;20190;-62
2023/01/28 08:24:02;;;;;;;8.13;4.13;;;5.10;87.50;;;;;;5051576;28;20202;-62
2023/01/28 08:26:29;;;;;;;6.40;4.03;;;5.10;87.50;;;;;;5050488;28;20186;-62
2023/01/28 08:28:56;;;;;;;12.07;6.07;;;5.10;87.50;;;;;;5049398;28;20222;-62
2023/01/28 08:31:24;;;;;;;12.40;5.90;;;5.10;87.30;;;;;;5050695;28;20253;-62
2023/01/28 08:33:51;;;;;;;12.70;6.63;;;5.10;87.30;;;;;;5050700;28;20198;-62
2023/01/28 08:36:18;;;;;;;12.80;6.50;;;5.10;87.30;;;;;;5051118;28;20213;-61
2023/01/28 08:38:45;;;;;;;16.00;7.43;;;5.10;87.30;;;;;;5051819;28;20198;-62
2023/01/28 08:41:13;;;;;;;16.50;8.17;;;5.10;87.40;;;;;;5046274;28;20669;-62
2023/01/28 08:43:41;;;;;;;22.10;10.30;;;5.10;87.50;;;;;;5044074;28;20197;-60
2023/01/28 08:46:08;;;;;;;17.67;8.43;;;5.10;87.50;;;;;;5044065;28;20225;-61
2023/01/28 08:48:37;;;;;;;23.30;10.60;;;5.00;87.50;;;;;;5048892;28;20281;-62
2023/01/28 08:51:04;;;;;;;17.37;7.83;;;5.00;87.70;;;;;;5049842;28;20194;-62
2023/01/28 08:53:31;;;;;;;15.00;6.97;;;5.00;87.80;;;;;;5049316;28;20226;-61
2023/01/28 08:55:59;;;;;;;10.80;5.70;;;5.00;87.90;;;;;;5049265;28;20190;-62
2023/01/28 08:58:27;;;;;;;10.77;5.30;;;5.00;88.00;;;;;;5050311;28;20193;-62
2023/01/28 09:00:54;;;;;;;10.07;5.70;;;5.10;88.10;;;;;;5049997;28;20225;-61
2023/01/28 09:03:21;;;;;;;9.73;5.20;;;5.10;88.40;;;;;;5050820;28;20202;-62
2023/01/28 09:05:49;;;;;;;10.37;5.53;;;5.10;88.30;;;;;;5051253;28;20620;-62
2023/01/28 09:08:16;;;;;;;6.13;4.13;;;5.10;88.30;;;;;;5051045;28;20190;-60
2023/01/28 09:10:44;;;;;;;7.70;4.63;;;5.10;88.50;;;;;;5052080;28;20216;-62
2023/01/28 09:13:13;;;;;;;12.63;6.03;;;5.10;88.40;;;;;;5051402;28;20731;-61
2023/01/28 09:15:42;;;;;;;7.83;4.53;;;5.20;88.70;;;;;;5050611;28;20202;-62
2023/01/28 09:18:10;;;;;;;7.70;5.07;;;5.20;88.60;;;;;;5050045;28;20200;-61
2023/01/28 09:20:37;;;;;;;7.43;4.47;;;5.10;88.50;;;;;;5050066;28;20210;-62
2023/01/28 09:23:04;;;;;;;7.80;3.90;;;4.90;88.40;;;;;;5047396;28;20195;-62
2023/01/28 09:25:32;;;;;;;6.50;4.03;;;5.10;88.60;;;;;;5048981;28;20248;-61
2023/01/28 09:27:59;;;;;;;11.17;6.10;;;5.20;88.70;;;;;;5050422;28;20558;-61
2023/01/28 09:30:26;;;;;;;7.47;4.90;;;5.20;88.70;;;;;;5048528;28;20226;-62
2023/01/28 09:32:56;;;;;;;8.23;4.93;;;5.10;88.70;;;;;;5048601;28;20660;-62
2023/01/28 09:35:24;;;;;;;8.57;4.50;;;5.10;88.80;;;;;;5048346;28;20206;-61
2023/01/28 09:37:51;;;;;;;8.70;4.40;;;5.10;88.70;;;;;;5050359;28;20595;-61
2023/01/28 09:40:22;;;;;;;12.13;5.00;;;5.10;88.60;;;;;;5049801;28;20240;-61
2023/01/28 09:43:01;;;;;;;8.70;4.70;;;5.10;88.60;;;;;;5050094;28;20242;-61
2023/01/28 09:45:35;;;;;;;14.03;6.03;;;5.10;88.60;;;;;;5049130;28;20906;-62
2023/01/28 09:48:06;;;;;;;11.20;5.90;;;5.10;88.70;;;;;;5049684;28;20203;-61
2023/01/28 09:50:37;;;;;;;8.53;4.83;;;5.10;89.40;;;;;;5048792;28;20222;-61
2023/01/28 09:53:10;;;;;;;6.70;4.37;;;5.10;88.70;;;;;;5051863;28;20212;-61
2023/01/28 09:55:40;;;;;;;8.63;4.23;;;5.10;88.60;;;;;;5048253;28;20201;-62
2023/01/28 09:58:12;;;;;;;7.33;3.97;;;5.10;88.10;;;;;;5047922;28;20197;-62
2023/01/28 10:00:46;;;;;;;3.63;2.90;;;5.10;87.30;;;;;;5048100;28;20216;-62
2023/01/28 10:03:38;;;;;;;3.03;2.57;;;5.10;87.30;;;;;;5049350;28;20192;-62
2023/01/28 10:06:22;;;;;;;4.80;2.60;;;5.10;87.20;;;;;;5045558;28;20196;-61
2023/01/28 10:09:08;;;;;;;3.60;2.70;;;5.10;87.10;;;;;;5049613;28;20281;-61
2023/01/28 10:11:49;;;;;;;4.00;2.80;;;5.10;86.80;;;;;;5048540;28;20245;-62
2023/01/28 10:14:25;;;;;;;5.03;3.07;;;5.10;86.40;;;;;;5048983;28;20217;-61
2023/01/28 10:16:59;;;;;;;3.07;2.47;;;5.10;86.40;;;;;;5047796;28;20191;-61
2023/01/28 10:19:32;;;;;;;4.33;2.63;;;5.20;86.40;;;;;;5049043;28;20189;-61
2023/01/28 10:22:05;;;;;;;3.70;2.63;;;5.20;86.40;;;;;;5046772;28;20503;-62
2023/01/28 10:24:35;;;;;;;4.83;2.80;;;5.20;86.20;;;;;;5049164;28;20194;-61
2023/01/28 10:27:03;;;;;;;5.27;2.43;;;5.20;86.20;;;;;;5047484;28;20203;-62
2023/01/28 10:29:34;;;;;;;2.10;1.87;;;5.20;86.10;;;;;;5049485;28;20256;-62
2023/01/28 10:32:13;;;;;;;3.03;2.23;;;5.20;86.00;;;;;;5047044;28;20584;-62
2023/01/28 10:34:41;;;;;;;4.77;1.90;;;5.30;86.00;;;;;;5049452;28;20197;-62
2023/01/28 10:37:12;;;;;;;1.90;1.70;;;5.20;85.90;;;;;;5049060;28;20714;-61
2023/01/28 10:39:40;;;;;;;1.60;1.50;;;5.20;86.10;;;;;;5049174;28;20191;-62
2023/01/28 10:42:20;;;;;;;1.40;1.30;;;5.20;86.10;;;;;;5047400;28;20232;-61
2023/01/28 10:44:49;;;;;;;2.20;2.00;;;5.30;86.00;;;;;;5045659;28;20669;-61
2023/01/28 10:47:27;;;;;;;1.83;1.70;;;5.20;85.40;;;;;;5045868;28;20195;-62
2023/01/28 10:49:59;;;;;;;1.73;1.63;;;5.20;85.40;;;;;;5048530;28;20247;-61
2023/01/28 10:52:26;;;;;;;2.00;1.80;;;5.20;85.40;;;;;;5049869;28;20236;-62
2023/01/28 10:55:01;;;;;;;1.73;1.60;;;5.30;85.50;;;;;;5050067;28;20486;-62
2023/01/28 10:57:28;;;;;;;1.43;1.30;;;5.30;85.30;;;;;;5047689;28;20677;-62
2023/01/28 10:59:56;;;;;;;1.80;1.53;;;5.30;85.40;;;;;;5047906;28;20602;-62
2023/01/28 11:02:30;;;;;;;2.37;1.77;;;5.30;85.40;;;;;;5048091;28;20204;-61
2023/01/28 11:05:05;;;;;;;2.00;1.80;;;5.30;85.40;;;;;;5048509;28;20281;-61
2023/01/28 11:07:32;;;;;;;2.70;2.17;;;5.40;85.30;;;;;;5047994;28;20654;-62
2023/01/28 11:09:59;;;;;;;2.70;2.10;;;5.40;85.30;;;;;;5048484;28;20206;-61
2023/01/28 11:12:28;;;;;;;3.60;2.20;;;5.40;85.10;;;;;;5044921;28;20197;-61
2023/01/28 11:14:57;;;;;;;2.60;2.20;;;4.30;83.90;;;;;;5048616;28;20662;-62
2023/01/28 11:17:26;;;;;;;5.77;3.70;;;5.40;84.90;;;;;;5046701;28;20193;-61
2023/01/28 11:19:54;;;;;;;3.43;2.80;;;5.40;84.40;;;;;;5048271;28;20221;-62
2023/01/28 11:22:31;;;;;;;3.53;2.63;;;5.30;84.50;;;;;;5046844;28;20202;-62
2023/01/28 11:24:58;;;;;;;6.83;3.57;;;5.30;84.60;;;;;;5046229;28;20186;-61
2023/01/28 11:27:29;;;;;;;5.27;3.00;;;5.30;84.20;;;;;;5048308;28;20585;-61
2023/01/28 11:30:00;;;;;;;5.90;3.43;;;5.30;84.20;;;;;;5048054;28;20206;-62
2023/01/28 11:32:29;;;;;;;5.30;2.83;;;5.20;84.30;;;;;;5046132;28;20210;-61
2023/01/28 11:34:58;;;;;;;4.57;2.93;;;5.30;84.50;;;;;;5046497;28;20672;-61
2023/01/28 11:37:28;;;;;;;11.03;4.33;;;5.30;84.50;;;;;;5048017;28;20210;-61
2023/01/28 11:40:19;;;;;;;7.37;4.50;;;5.30;84.30;;;;;;5048828;28;20197;-61
2023/01/28 11:42:47;;;;;;;4.13;3.17;;;5.30;84.20;;;;;;5047454;28;20562;-61
2023/01/28 11:45:18;;;;;;;7.70;4.03;;;5.30;84.40;;;;;;5050083;28;20198;-62
2023/01/28 11:48:11;;;;;;;4.93;3.60;;;5.30;84.60;;;;;;5050928;28;20214;-62
2023/01/28 11:50:47;;;;;;;4.43;3.60;;;5.30;84.60;;;;;;5048756;28;20221;-62
2023/01/28 11:53:27;;;;;;;4.87;3.17;;;5.30;84.80;;;;;;5050788;28;20193;-61
2023/01/28 11:56:12;;;;;;;5.20;3.50;;;5.30;84.80;;;;;;5050615;28;20206;-61
2023/01/28 11:58:49;;;;;;;6.57;3.63;;;5.30;84.90;;;;;;5051742;28;20202;-61
2023/01/28 12:01:24;;;;;;;8.93;5.67;;;5.40;84.90;;;;;;5051102;28;20191;-62
2023/01/28 12:04:24;;;;;;;9.27;5.30;;;5.30;84.60;;;;;;5052073;28;20192;-62
2023/01/28 12:07:04;;;;;;;8.37;4.70;;;5.30;84.80;;;;;;5039835;28;20670;-62
2023/01/28 12:09:42;;;;;;;7.73;4.07;;;5.30;85.00;;;;;;5052579;28;20185;-61
2023/01/28 12:12:26;;;;;;;14.33;6.53;;;5.40;85.30;;;;;;5051458;28;20194;-61
2023/01/28 12:15:19;;;;;;;11.23;6.10;;;5.40;85.40;;;;;;5051369;28;20190;-60
2023/01/28 12:18:01;;;;;;;17.30;7.63;;;5.30;85.40;;;;;;5043349;28;20206;-61
2023/01/28 12:20:33;;;;;;;11.43;6.33;;;5.20;85.60;;;;;;5051474;28;20191;-62
2023/01/28 12:23:23;;;;;;;9.37;5.53;;;5.20;85.70;;;;;;5050976;28;20186;-62
2023/01/28 12:26:03;;;;;;;10.17;6.00;;;5.30;85.90;;;;;;5048248;28;20640;-62
2023/01/28 12:28:52;;;;;;;8.40;4.73;;;5.30;85.80;;;;;;5052077;28;20191;-62
2023/01/28 12:31:43;;;;;;;7.90;4.60;;;5.30;85.40;;;;;;5050238;28;20206;-61
2023/01/28 12:34:38;;;;;;;5.17;3.20;;;5.30;85.20;;;;;;5051074;28;20193;-61
2023/01/28 12:37:12;;;;;;;7.80;3.47;;;5.30;85.10;;;;;;5050737;28;20198;-62
2023/01/28 12:39:52;;;;;;;5.93;3.30;;;5.30;85.00;;;;;;5051277;28;20199;-61
2023/01/28 12:42:27;;;;;;;4.87;2.87;;;5.30;84.90;;;;;;5051554;28;20248;-61
2023/01/28 12:45:00;;;;;;;5.80;3.50;;;5.20;84.80;;;;;;5049473;28;20281;-61
2023/01/28 12:47:33;;;;;;;4.87;3.20;;;5.20;84.90;;;;;;5048741;28;20197;-62
2023/01/28 12:50:10;;;;;;;5.47;4.13;;;5.20;85.00;;;;;;5050902;28;20234;-62
2023/01/28 12:52:43;;;;;;;6.87;3.87;;;5.20;85.00;;;;;;5047973;28;20245;-62
2023/01/28 12:55:17;;;;;;;6.10;3.60;;;5.20;85.10;;;;;;5051695;28;20194;-62
2023/01/28 12:57:45;;;;;;;10.70;4.93;;;5.20;85.20;;;;;;5049630;28;20292;-61
2023/01/28 13:00:23;;;;;;;12.50;5.47;;;5.20;85.20;;;;;;5050600;28;20266;-61
2023/01/28 13:02:58;;;;;;;11.00;5.77;;;5.20;85.40;;;;;;5048028;28;20987;-61
2023/01/28 13:05:32;;;;;;;6.90;4.60;;;5.20;85.50;;;;;;5053524;28;20193;-61
2023/01/28 13:08:06;;;;;;;7.47;4.67;;;5.30;85.70;;;;;;5050682;28;20204;-61
2023/01/28 13:10:40;;;;;;;5.13;3.70;;;5.20;85.60;;;;;;5049365;28;20205;-61
2023/01/28 13:13:17;;;;;;;6.17;3.83;;;5.20;85.70;;;;;;5047704;28;20192;-61
2023/01/28 13:15:45;;;;;;;6.20;3.87;;;5.30;85.70;;;;;;5049164;28;20194;-62
2023/01/28 13:18:30;;;;;;;6.73;4.17;;;5.30;85.70;;;;;;5050044;28;20593;-61
2023/01/28 13:20:58;;;;;;;5.63;3.70;;;5.30;85.80;;;;;;5049809;28;20277;-61
2023/01/28 13:23:27;;;;;;;4.47;3.40;;;5.30;85.90;;;;;;5050865;28;20238;-61
2023/01/28 13:25:55;;;;;;;4.67;3.60;;;5.30;85.80;;;;;;5049417;28;20202;-61
2023/01/28 13:28:29;;;;;;;6.57;4.37;;;5.40;85.90;;;;;;5051197;28;20570;-62
2023/01/28 13:31:03;;;;;;;5.80;3.60;;;5.40;85.90;;;;;;5047069;28;20294;-62
2023/01/28 13:33:33;;;;;;;11.23;6.43;;;5.50;85.90;;;;;;5048434;28;20677;-61
2023/01/28 13:36:07;;;;;;;13.37;6.83;;;5.50;85.70;;;;;;5048889;28;20697;-61
2023/01/28 13:38:35;;;;;;;11.90;6.60;;;5.50;85.70;;;;;;5048209;28;20205;-62
2023/01/28 13:41:05;;;;;;;10.53;5.57;;;5.40;85.60;;;;;;5049670;28;20200;-62
2023/01/28 13:43:41;;;;;;;8.93;4.90;;;5.40;85.70;;;;;;5049819;28;20225;-62
2023/01/28 13:46:11;;;;;;;7.37;4.70;;;5.40;85.90;;;;;;5048077;28;20280;-61
2023/01/28 13:48:48;;;;;;;6.93;3.93;;;5.40;86.00;;;;;;5050015;28;20205;-62
2023/01/28 13:51:20;;;;;;;6.47;3.90;;;5.40;86.00;;;;;;5049366;28;20542;-62
2023/01/28 13:53:55;;;;;;;12.50;6.10;;;5.40;86.00;;;;;;5049078;28;20197;-62
2023/01/28 13:56:26;;;;;;;9.10;5.10;;;5.50;86.10;;;;;;5049753;28;20550;-62
2023/01/28 13:59:20;;;;;;;9.23;4.90;;;5.50;86.10;;;;;;5050388;28;20236;-62
2023/01/28 14:02:19;;;;;;;7.60;4.50;;;5.50;86.10;;;;;;5046040;28;20197;-62
2023/01/28 14:05:19;;;;;;;11.93;5.57;;;5.50;86.00;;;;;;5049785;28;20536;-60
2023/01/28 14:08:28;;;;;;;10.20;5.63;;;5.50;85.90;;;;;;5048441;28;20200;-62
2023/01/28 14:11:21;;;;;;;14.23;6.30;;;5.50;85.90;;;;;;5046921;28;20205;-62
2023/01/28 14:14:20;;;;;;;13.83;5.53;;;5.50;86.10;;;;;;5048121;28;20289;-62